Terminal Aerodrome Forecast
Issued by NWS

Home | Current Version | Previous Version | Text Only | Print | Product List | Glossary Off
Versions: 1 2 3 4 5 6 7 8 9 10 11 12 13 14 15 16 17 18 19 20

082
FTUS43 KMPX 211120
TAFAXN
TAF
KAXN 211120Z 2112/2212 11006KT P6SM VCSH SCT050 BKN070
     FM211500 12009KT P6SM BKN030
      TEMPO 2115/2119 6SM BR OVC015
     FM211900 12008KT P6SM OVC015
     FM220500 12005KT 6SM BR OVC007=

USA.gov is the U.S. government's official web portal to all federal, state and local government web resources and services.